Time;durP1;ratioP1;P1;durP2;ratioP2;P2;SDS_P1;SDS_P2;PMS_P1;PMS_P2;Temp;Humidity;BMP_temperature;BMP_pressure;BME280_temperature;BME280_humidity;BME280_pressure;Samples;Min_cycle;Max_cycle;Signal;HPM_P1;HPM_P2
2024/03/09 00:00:39;;;;;;;13.10;8.40;;;;;;;6.89;76.71;97021.88;5165452;22;20162;-85
2024/03/09 00:03:01;;;;;;;14.70;9.35;;;;;;;6.94;76.38;97027.53;5144953;22;20163;-85
2024/03/09 00:05:25;;;;;;;13.10;8.95;;;;;;;6.96;76.69;97030.03;5144072;22;20247;-83
2024/03/09 00:07:49;;;;;;;14.00;8.48;;;;;;;6.94;76.66;97029.31;5189783;22;20166;-84
2024/03/09 00:10:12;;;;;;;13.45;8.63;;;;;;;6.91;76.39;97029.53;5166458;22;20542;-84
2024/03/09 00:12:35;;;;;;;16.02;8.93;;;;;;;6.84;76.53;97025.72;5166471;22;20192;-83
2024/03/09 00:14:57;;;;;;;13.82;8.80;;;;;;;6.71;76.89;97025.75;5143189;22;20221;-83
2024/03/09 00:17:20;;;;;;;14.40;8.38;;;;;;;6.65;77.67;97027.97;5165656;22;20169;-82
2024/03/09 00:19:42;;;;;;;14.95;8.57;;;;;;;6.57;77.44;97023.31;5166977;22;20293;-89
2024/03/09 00:22:05;;;;;;;11.60;7.90;;;;;;;6.55;77.21;97026.94;5165893;22;20213;-89
2024/03/09 00:24:27;;;;;;;14.07;7.88;;;;;;;6.57;77.20;97025.09;5165046;22;20238;-88
2024/03/09 00:26:50;;;;;;;12.75;8.43;;;;;;;6.58;77.77;97024.13;5145329;22;20186;-89
2024/03/09 00:29:13;;;;;;;14.55;8.93;;;;;;;6.58;77.34;97024.97;5192505;22;20193;-91
2024/03/09 00:31:35;;;;;;;12.80;9.23;;;;;;;6.56;77.71;97020.81;5147932;22;20221;-90
2024/03/09 00:33:57;;;;;;;12.85;8.30;;;;;;;6.52;77.79;97013.38;5167415;22;20174;-90
2024/03/09 00:36:19;;;;;;;15.90;9.30;;;;;;;6.51;77.73;97019.47;5188348;22;20217;-90
2024/03/09 00:38:45;;;;;;;13.55;8.45;;;;;;;6.41;77.80;97018.47;5148194;22;20265;-88
2024/03/09 00:41:10;;;;;;;12.95;8.65;;;;;;;6.40;77.87;97016.81;5164760;23;20291;-90
2024/03/09 00:43:43;;;;;;;12.90;9.00;;;;;;;6.33;78.16;97007.81;5142821;23;20209;-89
2024/03/09 00:46:07;;;;;;;15.15;8.57;;;;;;;6.30;78.26;97018.38;5142339;23;20185;-89
2024/03/09 00:48:29;;;;;;;14.23;9.20;;;;;;;6.34;78.47;97014.66;5165253;23;20649;-89
2024/03/09 00:50:53;;;;;;;15.32;8.90;;;;;;;6.32;78.23;97014.75;5140521;23;20221;-86
2024/03/09 00:53:15;;;;;;;12.02;7.85;;;;;;;6.32;78.62;97014.75;5141630;23;20175;-89
2024/03/09 00:55:37;;;;;;;11.45;7.70;;;;;;;6.33;78.63;97016.41;5140649;23;20167;-88
2024/03/09 00:58:01;;;;;;;13.75;7.95;;;;;;;6.34;78.43;97010.28;5141849;23;20222;-90
2024/03/09 01:00:23;;;;;;;14.57;8.50;;;;;;;6.37;78.34;97010.06;5139710;23;20225;-90
2024/03/09 01:02:48;;;;;;;14.75;8.98;;;;;;;6.41;78.90;97016.72;5140756;23;20297;-89
2024/03/09 01:05:11;;;;;;;13.18;9.10;;;;;;;6.41;78.60;97015.91;5161586;23;20642;-89
2024/03/09 01:07:34;;;;;;;14.60;9.00;;;;;;;6.40;78.15;97028.00;5162835;23;20646;-89
2024/03/09 01:09:56;;;;;;;13.15;8.15;;;;;;;6.37;78.16;97022.19;5162653;23;20176;-89
2024/03/09 01:12:18;;;;;;;14.95;9.48;;;;;;;6.34;78.76;97010.28;5141512;23;21031;-89
2024/03/09 01:14:41;;;;;;;13.18;8.88;;;;;;;6.31;78.38;97015.69;5161508;23;20279;-89
2024/03/09 01:17:03;;;;;;;14.68;8.50;;;;;;;6.30;78.56;97015.78;5161643;23;20212;-89
2024/03/09 01:19:25;;;;;;;15.13;9.43;;;;;;;6.26;78.95;97010.00;5161835;23;20690;-89
2024/03/09 01:21:47;;;;;;;14.10;9.63;;;;;;;6.23;78.62;97004.22;5163612;23;20167;-89
2024/03/09 01:24:08;;;;;;;15.38;9.07;;;;;;;6.19;79.21;97006.19;5141553;23;20209;-89
2024/03/09 01:26:30;;;;;;;18.02;9.85;;;;;;;6.15;79.23;97004.72;5162822;23;20165;-89
2024/03/09 01:28:54;;;;;;;18.02;9.90;;;;;;;6.11;79.63;97000.69;5163029;23;20176;-87
2024/03/09 01:31:18;;;;;;;18.15;10.35;;;;;;;6.04;79.46;96988.28;5162802;23;20173;-83
2024/03/09 01:33:40;;;;;;;14.95;9.45;;;;;;;5.98;79.27;96980.09;5164167;23;20157;-83
2024/03/09 01:36:02;;;;;;;14.07;9.00;;;;;;;5.89;79.13;96965.22;5140532;23;20694;-83
2024/03/09 01:38:24;;;;;;;14.52;8.98;;;;;;;5.80;79.50;96960.66;5142100;23;20250;-84
2024/03/09 01:40:46;;;;;;;13.30;9.00;;;;;;;5.71;79.73;96961.25;5163162;23;20200;-83
2024/03/09 01:43:09;;;;;;;14.32;9.20;;;;;;;5.68;80.23;96958.88;5141249;23;20159;-83
2024/03/09 01:45:30;;;;;;;13.55;8.65;;;;;;;5.65;80.19;96959.06;5139423;23;20166;-83
2024/03/09 01:47:54;;;;;;;15.18;9.07;;;;;;;5.71;80.48;96958.66;5142330;23;20222;-83
2024/03/09 01:50:16;;;;;;;14.32;8.70;;;;;;;5.70;80.63;96963.00;5140949;23;20171;-83
2024/03/09 01:52:38;;;;;;;14.70;8.95;;;;;;;5.73;80.77;96959.41;5162670;23;20189;-84
2024/03/09 01:55:03;;;;;;;13.15;8.93;;;;;;;5.80;80.77;96971.00;5140661;23;20165;-84
2024/03/09 01:57:26;;;;;;;14.02;9.30;;;;;;;5.79;80.70;96975.34;5161794;23;20521;-83
2024/03/09 01:59:49;;;;;;;16.95;10.50;;;;;;;5.74;80.80;96986.94;5162458;23;20166;-83
2024/03/09 02:02:13;;;;;;;15.43;10.23;;;;;;;5.73;80.92;96980.09;5163714;23;20623;-83
2024/03/09 02:04:37;;;;;;;15.43;10.27;;;;;;;5.63;80.81;96984.22;5140679;23;20176;-84
2024/03/09 02:06:59;;;;;;;15.70;9.90;;;;;;;5.58;81.46;96985.44;5141853;23;20281;-83
2024/03/09 02:09:22;;;;;;;16.30;10.38;;;;;;;5.54;80.92;96986.59;5162373;23;20651;-83
2024/03/09 02:11:43;;;;;;;17.58;11.05;;;;;;;5.54;82.03;96982.25;5163192;23;20201;-83
2024/03/09 02:14:06;;;;;;;18.35;10.40;;;;;;;5.51;81.60;96982.44;5162172;23;20212;-83
2024/03/09 02:16:30;;;;;;;18.08;10.63;;;;;;;5.50;81.80;96979.97;5139212;23;20166;-83
2024/03/09 02:18:52;;;;;;;16.38;9.63;;;;;;;5.45;81.86;96976.84;5163051;23;20543;-84
2024/03/09 02:21:16;;;;;;;16.35;10.57;;;;;;;5.46;81.74;96971.59;5163468;23;20274;-83
2024/03/09 02:23:38;;;;;;;16.23;10.30;;;;;;;5.40;82.15;96953.91;5163477;23;20304;-83
2024/03/09 02:26:02;;;;;;;14.93;9.70;;;;;;;5.42;82.23;96954.59;5139964;23;20193;-82
2024/03/09 02:28:27;;;;;;;12.77;9.23;;;;;;;5.41;82.82;96960.72;5140268;23;20163;-83
2024/03/09 02:30:50;;;;;;;16.73;10.20;;;;;;;5.37;83.24;96959.25;5140062;23;20669;-83
2024/03/09 02:33:12;;;;;;;15.48;9.95;;;;;;;5.36;82.46;96964.53;5141611;23;20236;-83
2024/03/09 02:35:34;;;;;;;14.65;9.82;;;;;;;5.30;82.80;96960.59;5140955;23;20162;-83
2024/03/09 02:37:55;;;;;;;15.52;9.95;;;;;;;5.30;82.64;96964.94;5163620;23;20175;-83
2024/03/09 02:40:18;;;;;;;13.98;9.65;;;;;;;5.32;83.93;96963.06;5141798;23;20175;-90
2024/03/09 02:43:04;;;;;;;15.85;9.63;;;;;;;5.33;83.09;96960.38;5161928;23;20309;-89
2024/03/09 02:45:23;;;;;;;14.25;8.95;;;;;;;5.33;83.16;96969.91;5138181;23;20217;-88
2024/03/09 02:47:46;;;;;;;14.93;9.43;;;;;;;5.32;83.29;96958.75;5163152;23;20272;-88
2024/03/09 02:50:09;;;;;;;14.25;9.02;;;;;;;5.29;83.67;96966.69;5162417;23;20243;-89
2024/03/09 02:52:31;;;;;;;14.52;8.95;;;;;;;5.27;83.92;96965.94;5163752;23;20168;-88
2024/03/09 02:54:54;;;;;;;14.00;8.55;;;;;;;5.26;84.22;96964.31;5140670;23;20197;-88
2024/03/09 02:57:16;;;;;;;13.27;9.57;;;;;;;5.26;84.29;96964.31;5163901;23;20234;-88
2024/03/09 02:59:40;;;;;;;13.60;8.52;;;;;;;5.26;83.50;96960.88;5140427;23;20162;-89
2024/03/09 03:02:14;;;;;;;15.43;9.95;;;;;;;5.27;84.02;96962.56;5163475;23;20230;-89
2024/03/09 03:04:35;;;;;;;14.43;9.68;;;;;;;5.25;84.23;96949.72;5142088;23;20207;-88
2024/03/09 03:06:57;;;;;;;13.00;8.70;;;;;;;5.23;84.47;96949.00;5142197;23;20209;-89
2024/03/09 03:09:19;;;;;;;13.80;8.95;;;;;;;5.21;84.10;96948.25;5163057;23;20519;-89
2024/03/09 03:11:42;;;;;;;13.50;8.95;;;;;;;5.22;84.75;96942.19;5161820;23;20213;-88
2024/03/09 03:14:05;;;;;;;14.00;9.40;;;;;;;5.23;84.14;96938.69;5163108;23;20185;-90
2024/03/09 03:16:29;;;;;;;13.77;8.60;;;;;;;5.23;83.92;96938.69;5161932;23;20220;-88
2024/03/09 03:18:51;;;;;;;15.35;9.50;;;;;;;5.25;84.02;96938.56;5140888;23;20239;-89
2024/03/09 03:21:14;;;;;;;14.82;9.23;;;;;;;5.25;84.50;96943.75;5140821;23;20607;-90
2024/03/09 03:23:37;;;;;;;15.88;10.85;;;;;;;5.27;84.69;96934.13;5163871;23;20201;-90
2024/03/09 03:25:58;;;;;;;14.10;9.05;;;;;;;5.26;84.68;96933.31;5141063;23;20958;-89
2024/03/09 03:28:21;;;;;;;14.15;9.27;;;;;;;5.28;85.17;96941.78;5163800;23;20157;-90
2024/03/09 03:30:45;;;;;;;13.57;8.77;;;;;;;5.27;84.81;96936.72;5141594;23;20202;-89
2024/03/09 03:33:08;;;;;;;13.48;9.25;;;;;;;5.27;85.24;96940.13;5142392;23;20268;-89
2024/03/09 03:35:32;;;;;;;14.88;8.38;;;;;;;5.29;85.02;96942.59;5161379;23;20196;-89
2024/03/09 03:37:55;;;;;;;12.30;8.30;;;;;;;5.27;85.05;96928.97;5140041;23;20232;-87
2024/03/09 03:40:17;;;;;;;16.02;8.77;;;;;;;5.25;85.18;96928.25;5140095;23;20226;-89
2024/03/09 03:42:41;;;;;;;12.32;8.70;;;;;;;5.25;84.78;96920.50;5139885;23;20169;-87
2024/03/09 03:45:06;;;;;;;15.60;9.38;;;;;;;5.24;85.24;96906.72;5139467;23;20222;-88
2024/03/09 03:47:28;;;;;;;14.82;9.85;;;;;;;5.17;84.83;96892.56;5161480;23;20722;-89
2024/03/09 03:49:52;;;;;;;13.50;9.75;;;;;;;5.18;84.65;96889.03;5141304;23;20167;-88
2024/03/09 03:52:15;;;;;;;14.88;10.15;;;;;;;5.16;85.47;96878.00;5141248;23;20572;-89
2024/03/09 03:54:36;;;;;;;14.80;9.35;;;;;;;5.14;85.51;96884.19;5139748;23;20237;-89
2024/03/09 03:56:58;;;;;;;18.33;8.90;;;;;;;5.17;85.55;96897.75;5141011;23;20246;-89
2024/03/09 03:59:21;;;;;;;13.07;9.30;;;;;;;5.14;85.97;96905.69;5162025;23;20253;-90
2024/03/09 04:01:46;;;;;;;16.38;8.60;;;;;;;5.06;86.48;96921.78;5162079;23;20220;-87
2024/03/09 04:04:08;;;;;;;12.00;8.10;;;;;;;5.06;85.97;96914.03;5140893;23;20162;-89
2024/03/09 04:06:31;;;;;;;13.20;8.88;;;;;;;5.08;85.93;96907.00;5163051;23;20272;-88
2024/03/09 04:08:53;;;;;;;14.95;9.60;;;;;;;5.03;85.97;96909.09;5164088;23;20180;-88
2024/03/09 04:11:16;;;;;;;14.18;8.95;;;;;;;5.05;87.07;96907.22;5162331;23;20407;-86
2024/03/09 04:13:39;;;;;;;16.23;10.57;;;;;;;5.04;86.97;96901.22;5162998;23;20197;-90
2024/03/09 04:16:02;;;;;;;30.15;22.17;;;;;;;5.08;85.99;96897.50;5161871;23;20165;-89
2024/03/09 04:18:26;;;;;;;16.02;10.70;;;;;;;5.11;85.89;96891.31;5163337;23;20177;-89
2024/03/09 04:20:49;;;;;;;15.93;10.32;;;;;;;5.12;86.81;96867.16;5162716;23;20208;-90
2024/03/09 04:23:15;;;;;;;14.23;8.93;;;;;;;5.05;86.69;96865.88;5160977;23;20213;-89
2024/03/09 04:25:41;;;;;;;19.45;12.88;;;;;;;5.07;87.36;96859.69;5161040;23;20691;-89
2024/03/09 04:28:03;;;;;;;18.77;12.38;;;;;;;5.10;88.03;96859.50;5140029;23;20159;-90
2024/03/09 04:30:25;;;;;;;15.23;9.93;;;;;;;5.09;88.19;96855.25;5140802;23;20165;-90
2024/03/09 04:32:47;;;;;;;15.80;9.73;;;;;;;5.15;88.26;96863.41;5141642;23;20165;-88
2024/03/09 04:35:09;;;;;;;14.10;8.95;;;;;;;5.15;87.24;96866.00;5161759;23;20193;-90
2024/03/09 04:37:34;;;;;;;14.43;9.25;;;;;;;5.15;86.99;96866.00;5162617;23;20169;-90
2024/03/09 04:39:58;;;;;;;13.55;8.25;;;;;;;5.15;87.05;96857.41;5140442;23;20217;-90
2024/03/09 04:42:24;;;;;;;15.30;9.40;;;;;;;5.15;86.78;96865.19;5161119;23;20192;-88
2024/03/09 04:44:46;;;;;;;13.70;8.70;;;;;;;5.19;87.52;96858.88;5161673;23;20278;-89
2024/03/09 04:47:09;;;;;;;16.33;9.73;;;;;;;5.22;87.35;96859.50;5140860;23;20163;-89
2024/03/09 04:49:31;;;;;;;13.45;9.60;;;;;;;5.26;88.24;96870.44;5164660;23;20172;-90
2024/03/09 04:51:56;;;;;;;15.07;9.90;;;;;;;5.26;87.47;96863.53;5141578;23;20240;-90
2024/03/09 04:54:18;;;;;;;13.95;9.57;;;;;;;5.30;87.77;96872.72;5161859;23;20233;-89
2024/03/09 04:56:44;;;;;;;16.95;9.63;;;;;;;5.33;87.54;96869.94;5161495;23;20165;-88
2024/03/09 04:59:07;;;;;;;19.20;10.55;;;;;;;5.35;87.42;96870.69;5141289;23;20215;-90
2024/03/09 05:01:32;;;;;;;17.25;10.30;;;;;;;5.39;87.52;96869.50;5139998;23;20167;-83
2024/03/09 05:03:54;;;;;;;18.92;11.40;;;;;;;5.48;87.15;96862.91;5160418;23;20238;-82
2024/03/09 05:06:16;;;;;;;17.75;11.23;;;;;;;5.58;86.66;96863.91;5161250;23;20273;-84
2024/03/09 05:08:39;;;;;;;16.38;10.23;;;;;;;5.58;86.40;96854.44;5162168;23;20380;-83
2024/03/09 05:11:00;;;;;;;18.05;10.52;;;;;;;5.57;87.18;96845.00;5161042;23;20181;-83
2024/03/09 05:13:24;;;;;;;17.60;11.77;;;;;;;5.56;86.98;96838.16;5139754;23;20166;-83
2024/03/09 05:15:48;;;;;;;19.98;12.95;;;;;;;5.51;88.28;96840.25;5139035;23;20214;-83
2024/03/09 05:18:11;;;;;;;19.80;11.63;;;;;;;5.51;87.92;96845.41;5138962;23;20169;-82
2024/03/09 05:20:33;;;;;;;19.38;10.80;;;;;;;5.51;87.39;96844.59;5141374;23;20219;-83
2024/03/09 05:22:57;;;;;;;18.08;11.77;;;;;;;5.43;88.99;96832.19;5161166;23;20640;-82
2024/03/09 05:25:21;;;;;;;19.75;12.13;;;;;;;5.38;88.19;96830.84;5163138;23;20229;-83
2024/03/09 05:27:43;;;;;;;20.10;11.60;;;;;;;5.40;88.77;96829.81;5161259;23;20213;-83
2024/03/09 05:30:09;;;;;;;17.05;10.85;;;;;;;5.44;88.82;96835.59;5160487;23;20305;-83
2024/03/09 05:32:34;;;;;;;18.80;12.13;;;;;;;5.45;88.64;96830.31;5162173;23;20237;-82
2024/03/09 05:34:56;;;;;;;19.50;11.23;;;;;;;5.55;88.65;96833.09;5138424;23;20261;-83
2024/03/09 05:37:18;;;;;;;21.67;12.18;;;;;;;5.61;88.83;96833.53;5139918;23;20194;-83
2024/03/09 05:39:40;;;;;;;23.77;13.95;;;;;;;5.72;88.92;96843.94;5160862;23;20165;-83
2024/03/09 05:42:04;;;;;;;18.35;12.43;;;;;;;5.78;88.83;96839.19;5184102;22;20201;-83
2024/03/09 05:44:26;;;;;;;18.33;11.70;;;;;;;5.79;88.35;96825.34;5163908;22;20260;-84
2024/03/09 05:46:50;;;;;;;19.42;11.50;;;;;;;5.77;88.20;96828.97;5163994;22;20185;-82
2024/03/09 05:49:12;;;;;;;17.33;11.18;;;;;;;5.79;88.76;96832.28;5188346;22;20236;-83
2024/03/09 05:51:34;;;;;;;16.88;11.13;;;;;;;5.84;88.36;96812.91;5165585;22;20175;-82
2024/03/09 05:53:56;;;;;;;19.88;13.05;;;;;;;5.88;88.38;96810.94;5143766;22;20173;-83
2024/03/09 05:56:18;;;;;;;19.33;12.18;;;;;;;5.88;88.57;96796.25;5163984;22;20649;-83
2024/03/09 05:58:40;;;;;;;21.52;11.65;;;;;;;5.90;88.46;96798.72;5163540;22;20173;-82
2024/03/09 06:01:03;;;;;;;17.52;11.35;;;;;;;5.92;88.73;96779.56;5143642;22;20182;-83
2024/03/09 06:03:26;;;;;;;16.25;10.70;;;;;;;5.96;89.38;96778.41;5165150;22;20163;-84
2024/03/09 06:05:48;;;;;;;16.92;11.60;;;;;;;6.04;89.64;96783.88;5164953;22;20179;-83
2024/03/09 06:08:10;;;;;;;22.15;11.95;;;;;;;6.13;90.10;96783.22;5144497;22;20170;-84
2024/03/09 06:10:32;;;;;;;20.15;11.60;;;;;;;6.20;90.07;96792.19;5144913;22;20162;-83
2024/03/09 06:13:01;;;;;;;21.05;12.07;;;;;;;6.30;89.52;96791.41;5145301;22;20176;-82
2024/03/09 06:15:24;;;;;;;19.67;11.93;;;;;;;6.35;89.08;96788.50;5164643;22;20190;-86
2024/03/09 06:17:47;;;;;;;19.42;11.50;;;;;;;6.37;88.08;96779.66;5166999;22;20166;-86
2024/03/09 06:20:14;;;;;;;18.33;10.98;;;;;;;6.27;87.85;96760.59;5144113;22;20243;-84
2024/03/09 06:22:36;;;;;;;17.48;11.15;;;;;;;6.22;87.97;96741.97;5145657;22;20211;-84
2024/03/09 06:24:58;;;;;;;18.55;12.30;;;;;;;6.23;88.23;96761.72;5166139;22;20226;-84
2024/03/09 06:27:19;;;;;;;19.13;11.85;;;;;;;6.29;88.52;96774.22;5167121;22;20160;-84
2024/03/09 06:29:44;;;;;;;18.77;12.05;;;;;;;6.29;89.83;96789.75;5144069;22;20168;-84
2024/03/09 06:32:06;;;;;;;19.80;13.43;;;;;;;6.12;88.90;96804.88;5146328;22;20167;-84
2024/03/09 06:34:28;;;;;;;17.38;11.90;;;;;;;6.00;87.50;96803.16;5143077;22;20718;-84
2024/03/09 06:36:53;;;;;;;18.50;12.52;;;;;;;5.82;87.69;96795.88;5146117;22;20578;-85
2024/03/09 06:39:18;;;;;;;17.77;11.90;;;;;;;5.88;89.33;96808.34;5145845;22;20649;-83
2024/03/09 06:41:47;;;;;;;19.00;12.07;;;;;;;5.98;89.39;96819.72;5166373;22;20251;-84
2024/03/09 06:44:14;;;;;;;17.58;12.40;;;;;;;5.98;90.20;96817.13;5166374;22;20253;-87
2024/03/09 06:46:38;;;;;;;18.23;10.90;;;;;;;6.01;89.42;96819.50;5166385;22;20212;-84
2024/03/09 06:49:05;;;;;;;19.35;11.90;;;;;;;6.02;88.87;96821.97;5189836;22;20219;-85
2024/03/09 06:51:26;;;;;;;17.30;11.32;;;;;;;6.08;88.47;96821.53;5189582;22;20207;-83
2024/03/09 06:53:51;;;;;;;17.38;11.13;;;;;;;6.37;88.84;96828.84;5165174;22;20228;-84
2024/03/09 06:56:14;;;;;;;19.55;11.93;;;;;;;6.74;84.94;96827.84;5165661;22;20213;-83
2024/03/09 06:58:36;;;;;;;20.83;12.93;;;;;;;6.91;82.90;96824.84;5166822;22;20206;-84
2024/03/09 07:00:58;;;;;;;19.45;11.88;;;;;;;6.93;82.95;96820.34;5167531;22;20216;-84
2024/03/09 07:03:19;;;;;;;23.67;13.05;;;;;;;7.08;83.34;96836.44;5143642;22;20747;-84
2024/03/09 07:05:43;;;;;;;17.50;11.27;;;;;;;7.47;81.05;96830.81;5145162;22;20157;-84
2024/03/09 07:08:09;;;;;;;16.02;11.23;;;;;;;7.70;80.23;96825.53;5165260;22;20218;-85
2024/03/09 07:10:34;;;;;;;17.23;11.85;;;;;;;8.02;78.97;96834.22;5144504;22;20197;-83
2024/03/09 07:12:57;;;;;;;17.95;11.50;;;;;;;8.41;78.42;96839.72;5145227;22;20697;-84
2024/03/09 07:15:21;;;;;;;19.80;12.23;;;;;;;8.80;78.69;96844.31;5143023;22;20235;-83
2024/03/09 07:17:44;;;;;;;18.85;10.35;;;;;;;8.95;77.24;96847.28;5165563;22;20168;-84
2024/03/09 07:20:12;;;;;;;18.15;11.25;;;;;;;8.86;77.95;96857.63;5144734;22;20220;-84
2024/03/09 07:22:34;;;;;;;16.75;11.88;;;;;;;8.59;77.12;96851.25;5125291;22;20568;-84
2024/03/09 07:24:56;;;;;;;18.50;12.40;;;;;;;8.49;78.51;96847.72;5165730;22;20235;-84
2024/03/09 07:27:20;;;;;;;17.00;11.40;;;;;;;8.43;78.46;96856.00;5144296;22;20318;-83
2024/03/09 07:29:49;;;;;;;17.95;12.23;;;;;;;8.38;77.89;96849.53;5144961;22;20216;-84
2024/03/09 07:32:11;;;;;;;18.73;11.40;;;;;;;8.46;77.57;96845.38;5166429;22;20164;-84
2024/03/09 07:34:35;;;;;;;17.13;10.88;;;;;;;8.79;77.80;96850.44;5189545;22;20604;-84
2024/03/09 07:36:56;;;;;;;19.35;11.68;;;;;;;9.14;77.29;96850.06;5188248;22;20164;-83
2024/03/09 07:39:18;;;;;;;18.35;12.00;;;;;;;9.54;75.91;96859.59;5189559;22;20498;-83
2024/03/09 07:41:40;;;;;;;16.90;12.23;;;;;;;10.05;75.77;96856.03;5165405;22;20266;-83
2024/03/09 07:44:06;;;;;;;21.25;12.98;;;;;;;10.47;75.26;96857.53;5144566;22;20212;-85
2024/03/09 07:46:29;;;;;;;17.15;10.90;;;;;;;10.70;72.30;96858.94;5165794;22;20215;-84
2024/03/09 07:48:51;;;;;;;18.48;11.68;;;;;;;10.80;72.58;96851.94;5166192;22;20221;-84
2024/03/09 07:51:14;;;;;;;18.98;12.65;;;;;;;10.52;71.73;96855.34;5144497;22;20276;-84
2024/03/09 07:53:38;;;;;;;19.65;12.68;;;;;;;10.04;72.15;96857.00;5166106;22;20172;-81
2024/03/09 07:55:59;;;;;;;17.35;12.27;;;;;;;9.98;73.51;96852.31;5144399;22;20274;-83
2024/03/09 07:58:22;;;;;;;15.95;12.02;;;;;;;10.22;72.49;96863.22;5145123;22;20173;-83
2024/03/09 08:00:49;;;;;;;18.50;13.03;;;;;;;10.55;72.36;96865.50;5143109;22;20161;-84
2024/03/09 08:03:13;;;;;;;18.63;11.77;;;;;;;10.93;73.12;96872.41;5189345;22;20574;-84
2024/03/09 08:05:36;;;;;;;18.10;12.70;;;;;;;11.20;73.17;96874.31;5166216;22;20517;-84
2024/03/09 08:08:02;;;;;;;18.87;12.17;;;;;;;11.50;72.55;96883.69;5165807;22;20515;-83
2024/03/09 08:10:25;;;;;;;20.87;12.80;;;;;;;11.66;70.97;96875.25;5167075;22;20950;-82
2024/03/09 08:12:48;;;;;;;15.10;10.83;;;;;;;11.70;70.87;96879.22;5166857;22;20598;-83
2024/03/09 08:15:12;;;;;;;17.57;11.97;;;;;;;11.83;70.36;96877.94;5143917;22;20516;-83
2024/03/09 08:17:36;;;;;;;18.17;13.13;;;;;;;11.89;71.34;96878.22;5165859;22;20512;-84
2024/03/09 08:19:59;;;;;;;17.27;11.50;;;;;;;12.12;72.70;96879.50;5166794;22;20560;-82
2024/03/09 08:22:22;;;;;;;17.20;11.97;;;;;;;12.38;71.91;96883.91;5167204;22;20560;-83
2024/03/09 08:24:44;;;;;;;20.57;12.53;;;;;;;12.56;71.00;96886.59;5165524;22;20524;-83
2024/03/09 08:27:06;;;;;;;17.47;12.33;;;;;;;12.66;69.94;96884.72;5142301;22;20542;-82
2024/03/09 08:29:31;;;;;;;15.90;11.90;;;;;;;12.60;67.89;96880.91;5143786;22;20646;-91
2024/03/09 08:31:55;;;;;;;16.37;12.23;;;;;;;12.72;70.05;96877.94;5144444;22;20694;-89
2024/03/09 08:34:20;;;;;;;17.67;13.27;;;;;;;12.85;69.00;96873.22;5144369;22;20525;-89
2024/03/09 08:36:42;;;;;;;19.23;11.77;;;;;;;12.93;68.45;96873.28;5167302;22;20579;-93
2024/03/09 08:39:04;;;;;;;16.70;12.27;;;;;;;13.04;68.07;96877.50;5167145;22;20512;-90
2024/03/09 08:41:27;;;;;;;15.23;11.43;;;;;;;13.01;65.75;96873.34;5166675;22;20615;-92
2024/03/09 08:43:49;;;;;;;17.80;11.93;;;;;;;12.87;67.05;96863.41;5145603;22;20910;-91
2024/03/09 08:46:13;;;;;;;19.80;12.50;;;;;;;12.98;68.51;96867.59;5167090;22;20574;-90
2024/03/09 08:48:35;;;;;;;15.90;12.23;;;;;;;13.15;68.28;96869.41;5145144;22;20608;-90
2024/03/09 08:50:59;;;;;;;18.10;12.87;;;;;;;13.29;68.36;96867.06;5145295;22;20526;-91
2024/03/09 08:53:21;;;;;;;20.80;13.30;;;;;;;13.35;67.37;96866.44;5167721;22;20504;-90
2024/03/09 08:55:45;;;;;;;17.90;12.80;;;;;;;13.44;66.83;96868.16;5166655;22;20553;-91
2024/03/09 08:58:07;;;;;;;19.70;13.00;;;;;;;13.56;67.84;96865.16;5167247;22;20517;-91
2024/03/09 09:00:29;;;;;;;19.50;13.43;;;;;;;13.64;66.95;96868.66;5165909;22;20616;-92
2024/03/09 09:02:51;;;;;;;22.10;14.23;;;;;;;13.66;68.63;96866.69;5145056;22;20518;-92
2024/03/09 09:05:14;;;;;;;17.67;13.70;;;;;;;13.76;67.13;96867.44;5189527;22;20518;-92
2024/03/09 09:07:38;;;;;;;19.93;13.87;;;;;;;13.73;67.25;96872.16;5167600;22;20515;-89
2024/03/09 09:10:00;;;;;;;16.47;12.87;;;;;;;13.71;67.96;96869.69;5144778;22;20542;-88
2024/03/09 09:12:24;;;;;;;19.80;12.97;;;;;;;13.79;66.38;96869.75;5142555;22;20537;-89
2024/03/09 09:14:47;;;;;;;18.90;13.30;;;;;;;13.68;65.64;96859.53;5150643;22;20524;-89
2024/03/09 09:17:10;;;;;;;18.83;13.47;;;;;;;13.80;68.60;96857.44;5161151;22;20566;-88
2024/03/09 09:19:33;;;;;;;19.43;13.40;;;;;;;13.91;67.19;96854.59;5161270;22;20518;-88
2024/03/09 09:21:56;;;;;;;18.23;13.50;;;;;;;14.01;66.36;96857.91;5159242;22;20522;-88
2024/03/09 09:24:21;;;;;;;18.50;13.50;;;;;;;14.03;66.53;96866.47;5159759;22;20541;-89
2024/03/09 09:26:45;;;;;;;23.87;14.53;;;;;;;14.13;68.95;96866.22;5160587;22;20534;-90
2024/03/09 09:29:08;;;;;;;20.10;13.50;;;;;;;14.20;66.04;96851.47;5161765;22;20537;-89
2024/03/09 09:31:32;;;;;;;19.53;13.93;;;;;;;14.31;67.59;96847.75;5160510;22;20518;-88
2024/03/09 09:33:55;;;;;;;25.87;17.13;;;;;;;14.37;66.17;96834.84;5159455;22;20523;-87
2024/03/09 09:36:19;;;;;;;26.20;17.73;;;;;;;14.39;66.41;96840.75;5162301;22;20569;-90
2024/03/09 09:38:45;;;;;;;21.00;14.27;;;;;;;14.50;65.50;96831.78;5160762;22;20517;-89
2024/03/09 09:41:09;;;;;;;19.90;13.60;;;;;;;14.59;66.66;96825.56;5182907;22;20992;-90
2024/03/09 09:43:32;;;;;;;20.10;13.97;;;;;;;14.69;66.45;96827.88;5163362;22;20662;-90
2024/03/09 09:45:57;;;;;;;20.33;14.20;;;;;;;14.82;65.12;96828.22;5164359;22;20537;-90
2024/03/09 09:48:25;;;;;;;19.07;13.43;;;;;;;14.76;65.77;96818.41;5165167;22;20549;-87
2024/03/09 09:50:47;;;;;;;19.90;14.80;;;;;;;14.80;67.83;96824.94;5157965;22;20513;-91
2024/03/09 09:53:09;;;;;;;18.70;13.30;;;;;;;14.83;66.27;96819.38;5168310;22;20544;-89
2024/03/09 09:55:31;;;;;;;20.03;14.03;;;;;;;14.98;66.72;96816.94;5147158;22;20536;-90
2024/03/09 09:57:54;;;;;;;21.40;15.23;;;;;;;15.05;64.38;96807.41;5169964;22;20598;-90
2024/03/09 10:00:17;;;;;;;20.67;14.43;;;;;;;15.04;64.23;96811.03;5149511;22;20510;-91
2024/03/09 10:02:40;;;;;;;21.47;13.97;;;;;;;14.93;65.79;96801.69;5151551;22;20577;-90
2024/03/09 10:05:03;;;;;;;21.80;14.43;;;;;;;15.02;66.71;96802.50;5171276;22;20561;-87
2024/03/09 10:07:25;;;;;;;19.10;13.50;;;;;;;15.15;66.05;96793.13;5171817;22;20615;-90
2024/03/09 10:09:47;;;;;;;20.30;14.60;;;;;;;15.27;65.68;96791.84;5170334;22;20525;-89
2024/03/09 10:12:20;;;;;;;20.53;14.80;;;;;;;15.22;64.82;96784.47;5170878;22;20568;-90
2024/03/09 10:14:44;;;;;;;21.30;14.20;;;;;;;15.24;67.57;96781.69;5170870;22;20576;-90
2024/03/09 10:17:09;;;;;;;19.30;14.07;;;;;;;15.22;65.17;96776.59;5147703;22;20562;-89
2024/03/09 10:19:35;;;;;;;19.90;14.47;;;;;;;15.18;64.62;96774.47;5147060;22;20590;-89
2024/03/09 10:21:56;;;;;;;20.17;13.83;;;;;;;15.25;64.28;96778.06;5147075;22;21081;-90
2024/03/09 10:24:19;;;;;;;19.67;13.47;;;;;;;15.22;64.57;96770.53;5148133;22;20521;-90
2024/03/09 10:26:44;;;;;;;20.47;14.13;;;;;;;15.09;65.18;96768.38;5148023;22;20518;-89
2024/03/09 10:29:07;;;;;;;17.80;13.10;;;;;;;15.19;67.79;96769.03;5147954;22;21050;-89
2024/03/09 10:31:31;;;;;;;18.23;13.50;;;;;;;15.40;69.49;96755.41;5168503;22;20514;-88
2024/03/09 10:33:53;;;;;;;19.87;13.70;;;;;;;15.56;66.12;96764.91;5146092;22;20598;-89
2024/03/09 10:36:17;;;;;;;17.77;12.77;;;;;;;15.68;65.43;96768.81;5167702;22;21076;-90
2024/03/09 10:38:40;;;;;;;20.90;14.60;;;;;;;15.75;66.20;96772.38;5166390;22;20507;-89
2024/03/09 10:41:05;;;;;;;17.50;12.43;;;;;;;15.84;68.45;96766.13;5146213;22;20631;-90
2024/03/09 10:43:28;;;;;;;19.03;13.50;;;;;;;16.01;68.06;96767.69;5189973;22;20855;-89
2024/03/09 10:45:54;;;;;;;18.47;13.30;;;;;;;16.13;66.76;96774.22;5166597;22;20550;-89
2024/03/09 10:48:18;;;;;;;18.33;14.07;;;;;;;16.22;67.58;96760.09;5144984;22;20574;-89
2024/03/09 10:50:43;;;;;;;19.17;14.00;;;;;;;16.27;66.16;96769.13;5146718;22;20527;-89
2024/03/09 10:53:21;;;;;;;18.60;13.03;;;;;;;16.35;65.45;96765.63;5146089;22;21116;-90
2024/03/09 10:55:49;;;;;;;19.10;13.07;;;;;;;16.32;63.57;96758.06;5190015;22;20895;-89
2024/03/09 10:58:15;;;;;;;19.70;13.50;;;;;;;16.27;64.19;96752.53;5167003;22;20567;-89
2024/03/09 11:00:37;;;;;;;17.53;12.53;;;;;;;16.36;65.74;96748.84;5166699;22;20511;-90
2024/03/09 11:03:00;;;;;;;18.27;13.87;;;;;;;16.38;65.04;96734.50;5166678;22;20519;-87
2024/03/09 11:05:24;;;;;;;19.67;13.80;;;;;;;16.34;63.25;96727.13;5145462;22;20512;-89
2024/03/09 11:07:46;;;;;;;18.33;12.20;;;;;;;16.38;64.82;96723.19;5145457;22;20559;-90